sensor_id;sensor_type;location;lat;lon;timestamp;P1;durP1;ratioP1;P2;durP2;ratioP2
67162;SDS011;54092;53.088;8.850;2023-02-04T00:02:21;4.47;;;1.80;;
67162;SDS011;54092;53.088;8.850;2023-02-04T00:04:46;12.25;;;2.10;;
67162;SDS011;54092;53.088;8.850;2023-02-04T00:07:12;4.18;;;1.10;;
67162;SDS011;54092;53.088;8.850;2023-02-04T00:09:37;7.45;;;1.70;;
67162;SDS011;54092;53.088;8.850;2023-02-04T00:12:03;9.07;;;1.27;;
67162;SDS011;54092;53.088;8.850;2023-02-04T00:14:29;10.70;;;1.50;;
67162;SDS011;54092;53.088;8.850;2023-02-04T00:16:54;8.40;;;1.70;;
67162;SDS011;54092;53.088;8.850;2023-02-04T00:19:20;3.70;;;1.55;;
67162;SDS011;54092;53.088;8.850;2023-02-04T00:21:45;7.30;;;1.60;;
67162;SDS011;54092;53.088;8.850;2023-02-04T00:24:10;6.97;;;1.60;;
67162;SDS011;54092;53.088;8.850;2023-02-04T00:26:36;5.57;;;1.55;;
67162;SDS011;54092;53.088;8.850;2023-02-04T00:29:01;11.48;;;2.25;;
67162;SDS011;54092;53.088;8.850;2023-02-04T00:31:27;7.10;;;1.60;;
67162;SDS011;54092;53.088;8.850;2023-02-04T00:33:52;4.35;;;1.75;;
67162;SDS011;54092;53.088;8.850;2023-02-04T00:36:18;6.28;;;1.80;;
67162;SDS011;54092;53.088;8.850;2023-02-04T00:38:43;8.07;;;1.80;;
67162;SDS011;54092;53.088;8.850;2023-02-04T00:41:09;5.45;;;1.38;;
67162;SDS011;54092;53.088;8.850;2023-02-04T00:43:35;7.72;;;1.90;;
67162;SDS011;54092;53.088;8.850;2023-02-04T00:46:01;9.90;;;1.83;;
67162;SDS011;54092;53.088;8.850;2023-02-04T00:48:26;9.52;;;2.05;;
67162;SDS011;54092;53.088;8.850;2023-02-04T00:50:52;11.30;;;2.65;;
67162;SDS011;54092;53.088;8.850;2023-02-04T00:53:18;5.55;;;1.80;;
67162;SDS011;54092;53.088;8.850;2023-02-04T00:55:43;7.40;;;1.58;;
67162;SDS011;54092;53.088;8.850;2023-02-04T00:58:09;4.80;;;1.50;;
67162;SDS011;54092;53.088;8.850;2023-02-04T01:00:34;9.23;;;1.98;;
67162;SDS011;54092;53.088;8.850;2023-02-04T01:03:00;8.45;;;2.15;;
67162;SDS011;54092;53.088;8.850;2023-02-04T01:05:25;7.30;;;2.17;;
67162;SDS011;54092;53.088;8.850;2023-02-04T01:07:51;6.03;;;1.50;;
67162;SDS011;54092;53.088;8.850;2023-02-04T01:10:16;6.25;;;1.65;;
67162;SDS011;54092;53.088;8.850;2023-02-04T01:12:42;6.90;;;1.50;;
67162;SDS011;54092;53.088;8.850;2023-02-04T01:15:08;4.97;;;1.55;;
67162;SDS011;54092;53.088;8.850;2023-02-04T01:17:34;6.63;;;1.50;;
67162;SDS011;54092;53.088;8.850;2023-02-04T01:20:00;7.07;;;1.67;;
67162;SDS011;54092;53.088;8.850;2023-02-04T01:22:25;9.93;;;1.90;;
67162;SDS011;54092;53.088;8.850;2023-02-04T01:24:51;8.88;;;1.70;;
67162;SDS011;54092;53.088;8.850;2023-02-04T01:27:16;5.25;;;1.17;;
67162;SDS011;54092;53.088;8.850;2023-02-04T01:29:42;4.75;;;1.60;;
67162;SDS011;54092;53.088;8.850;2023-02-04T01:32:07;4.65;;;1.73;;
67162;SDS011;54092;53.088;8.850;2023-02-04T01:34:33;5.35;;;2.20;;
67162;SDS011;54092;53.088;8.850;2023-02-04T01:36:58;8.68;;;2.00;;
67162;SDS011;54092;53.088;8.850;2023-02-04T01:39:24;4.00;;;1.38;;
67162;SDS011;54092;53.088;8.850;2023-02-04T01:41:49;4.65;;;1.73;;
67162;SDS011;54092;53.088;8.850;2023-02-04T01:44:15;6.80;;;1.73;;
67162;SDS011;54092;53.088;8.850;2023-02-04T01:46:40;7.05;;;1.30;;
67162;SDS011;54092;53.088;8.850;2023-02-04T01:49:06;6.60;;;1.88;;
67162;SDS011;54092;53.088;8.850;2023-02-04T01:51:32;4.28;;;1.27;;
67162;SDS011;54092;53.088;8.850;2023-02-04T01:53:59;7.55;;;1.60;;
67162;SDS011;54092;53.088;8.850;2023-02-04T01:56:25;4.82;;;1.45;;
67162;SDS011;54092;53.088;8.850;2023-02-04T01:58:52;8.75;;;1.75;;
67162;SDS011;54092;53.088;8.850;2023-02-04T02:04:06;5.65;;;1.60;;
67162;SDS011;54092;53.088;8.850;2023-02-04T02:06:33;6.03;;;1.75;;
67162;SDS011;54092;53.088;8.850;2023-02-04T02:09:00;7.00;;;1.75;;
67162;SDS011;54092;53.088;8.850;2023-02-04T02:11:26;5.80;;;1.58;;
67162;SDS011;54092;53.088;8.850;2023-02-04T02:13:52;5.15;;;1.58;;
67162;SDS011;54092;53.088;8.850;2023-02-04T02:16:18;3.83;;;1.20;;
67162;SDS011;54092;53.088;8.850;2023-02-04T02:18:44;4.32;;;1.27;;
67162;SDS011;54092;53.088;8.850;2023-02-04T02:21:10;6.47;;;1.50;;
67162;SDS011;54092;53.088;8.850;2023-02-04T02:23:47;4.22;;;1.27;;
67162;SDS011;54092;53.088;8.850;2023-02-04T02:26:18;5.90;;;1.98;;
67162;SDS011;54092;53.088;8.850;2023-02-04T02:28:46;5.88;;;2.17;;
67162;SDS011;54092;53.088;8.850;2023-02-04T02:31:15;5.43;;;1.40;;
67162;SDS011;54092;53.088;8.850;2023-02-04T02:33:44;6.88;;;1.52;;
67162;SDS011;54092;53.088;8.850;2023-02-04T02:36:10;6.90;;;1.63;;
67162;SDS011;54092;53.088;8.850;2023-02-04T02:38:36;6.20;;;1.17;;
67162;SDS011;54092;53.088;8.850;2023-02-04T02:41:02;2.20;;;1.08;;
67162;SDS011;54092;53.088;8.850;2023-02-04T02:43:28;7.63;;;1.48;;
67162;SDS011;54092;53.088;8.850;2023-02-04T02:45:54;7.97;;;1.50;;
67162;SDS011;54092;53.088;8.850;2023-02-04T02:48:22;2.72;;;1.17;;
67162;SDS011;54092;53.088;8.850;2023-02-04T02:50:48;6.18;;;1.10;;
67162;SDS011;54092;53.088;8.850;2023-02-04T02:53:14;7.32;;;1.35;;
67162;SDS011;54092;53.088;8.850;2023-02-04T02:55:41;3.45;;;1.35;;
67162;SDS011;54092;53.088;8.850;2023-02-04T03:00:59;3.80;;;1.42;;
67162;SDS011;54092;53.088;8.850;2023-02-04T03:03:27;7.32;;;1.70;;
67162;SDS011;54092;53.088;8.850;2023-02-04T03:06:16;3.45;;;1.40;;
67162;SDS011;54092;53.088;8.850;2023-02-04T03:08:44;5.00;;;1.60;;
67162;SDS011;54092;53.088;8.850;2023-02-04T03:11:11;5.20;;;1.50;;
67162;SDS011;54092;53.088;8.850;2023-02-04T03:13:37;3.42;;;1.50;;
67162;SDS011;54092;53.088;8.850;2023-02-04T03:16:03;4.22;;;1.45;;
67162;SDS011;54092;53.088;8.850;2023-02-04T03:18:29;3.78;;;1.33;;
67162;SDS011;54092;53.088;8.850;2023-02-04T03:20:55;7.80;;;1.52;;
67162;SDS011;54092;53.088;8.850;2023-02-04T03:23:22;5.63;;;1.40;;
67162;SDS011;54092;53.088;8.850;2023-02-04T03:25:48;2.85;;;1.30;;
67162;SDS011;54092;53.088;8.850;2023-02-04T03:28:14;3.05;;;1.00;;
67162;SDS011;54092;53.088;8.850;2023-02-04T03:30:39;4.63;;;1.83;;
67162;SDS011;54092;53.088;8.850;2023-02-04T03:33:05;3.88;;;1.40;;
67162;SDS011;54092;53.088;8.850;2023-02-04T03:35:30;4.10;;;1.50;;
67162;SDS011;54092;53.088;8.850;2023-02-04T03:37:56;3.92;;;1.38;;
67162;SDS011;54092;53.088;8.850;2023-02-04T03:40:21;4.78;;;1.67;;
67162;SDS011;54092;53.088;8.850;2023-02-04T03:42:47;3.50;;;1.65;;
67162;SDS011;54092;53.088;8.850;2023-02-04T03:45:12;4.78;;;1.33;;
67162;SDS011;54092;53.088;8.850;2023-02-04T03:47:38;1.80;;;1.08;;
67162;SDS011;54092;53.088;8.850;2023-02-04T03:50:03;2.95;;;1.60;;
67162;SDS011;54092;53.088;8.850;2023-02-04T03:52:29;3.05;;;1.27;;
67162;SDS011;54092;53.088;8.850;2023-02-04T03:54:55;2.72;;;1.30;;
67162;SDS011;54092;53.088;8.850;2023-02-04T03:57:20;3.88;;;1.30;;
67162;SDS011;54092;53.088;8.850;2023-02-04T03:59:46;3.85;;;1.40;;
67162;SDS011;54092;53.088;8.850;2023-02-04T04:02:11;3.85;;;1.70;;
67162;SDS011;54092;53.088;8.850;2023-02-04T04:04:37;5.70;;;1.80;;
67162;SDS011;54092;53.088;8.850;2023-02-04T04:07:02;11.18;;;1.70;;
67162;SDS011;54092;53.088;8.850;2023-02-04T04:09:28;3.42;;;1.63;;
67162;SDS011;54092;53.088;8.850;2023-02-04T04:11:53;6.15;;;1.80;;
67162;SDS011;54092;53.088;8.850;2023-02-04T04:14:19;5.78;;;1.27;;
67162;SDS011;54092;53.088;8.850;2023-02-04T04:16:44;7.60;;;1.92;;
67162;SDS011;54092;53.088;8.850;2023-02-04T04:19:10;8.10;;;1.80;;
67162;SDS011;54092;53.088;8.850;2023-02-04T04:21:35;3.22;;;1.30;;
67162;SDS011;54092;53.088;8.850;2023-02-04T04:24:01;3.00;;;1.50;;
67162;SDS011;54092;53.088;8.850;2023-02-04T04:26:26;3.80;;;1.70;;
67162;SDS011;54092;53.088;8.850;2023-02-04T04:28:52;6.07;;;1.60;;
67162;SDS011;54092;53.088;8.850;2023-02-04T04:31:17;3.53;;;1.88;;
67162;SDS011;54092;53.088;8.850;2023-02-04T04:33:43;9.52;;;1.90;;
67162;SDS011;54092;53.088;8.850;2023-02-04T04:36:08;3.30;;;1.50;;
67162;SDS011;54092;53.088;8.850;2023-02-04T04:38:34;2.88;;;1.70;;
67162;SDS011;54092;53.088;8.850;2023-02-04T04:40:59;3.60;;;1.83;;
67162;SDS011;54092;53.088;8.850;2023-02-04T04:43:25;4.28;;;1.58;;
67162;SDS011;54092;53.088;8.850;2023-02-04T04:45:51;4.63;;;1.67;;
67162;SDS011;54092;53.088;8.850;2023-02-04T04:48:16;5.22;;;1.67;;
67162;SDS011;54092;53.088;8.850;2023-02-04T04:50:42;4.50;;;1.40;;
67162;SDS011;54092;53.088;8.850;2023-02-04T04:53:07;5.93;;;1.60;;
67162;SDS011;54092;53.088;8.850;2023-02-04T04:55:35;5.60;;;1.80;;
67162;SDS011;54092;53.088;8.850;2023-02-04T04:58:02;2.65;;;1.50;;
67162;SDS011;54092;53.088;8.850;2023-02-04T05:00:28;8.40;;;1.73;;
67162;SDS011;54092;53.088;8.850;2023-02-04T05:02:54;3.38;;;1.70;;
67162;SDS011;54092;53.088;8.850;2023-02-04T05:05:19;6.78;;;1.75;;
67162;SDS011;54092;53.088;8.850;2023-02-04T05:07:45;4.32;;;1.80;;
67162;SDS011;54092;53.088;8.850;2023-02-04T05:10:10;3.97;;;1.70;;
67162;SDS011;54092;53.088;8.850;2023-02-04T05:12:35;6.28;;;1.90;;
67162;SDS011;54092;53.088;8.850;2023-02-04T05:15:01;7.97;;;2.03;;
67162;SDS011;54092;53.088;8.850;2023-02-04T05:17:27;5.75;;;2.42;;
67162;SDS011;54092;53.088;8.850;2023-02-04T05:19:52;3.70;;;1.85;;
67162;SDS011;54092;53.088;8.850;2023-02-04T05:22:18;2.33;;;1.50;;
67162;SDS011;54092;53.088;8.850;2023-02-04T05:24:43;3.20;;;1.60;;
67162;SDS011;54092;53.088;8.850;2023-02-04T05:27:09;6.50;;;2.00;;
67162;SDS011;54092;53.088;8.850;2023-02-04T05:29:34;5.13;;;1.90;;
67162;SDS011;54092;53.088;8.850;2023-02-04T05:32:00;4.68;;;1.60;;
67162;SDS011;54092;53.088;8.850;2023-02-04T05:34:25;5.78;;;1.60;;
67162;SDS011;54092;53.088;8.850;2023-02-04T05:36:51;3.67;;;1.92;;
67162;SDS011;54092;53.088;8.850;2023-02-04T05:39:16;4.03;;;2.10;;
67162;SDS011;54092;53.088;8.850;2023-02-04T05:41:42;5.75;;;1.90;;
67162;SDS011;54092;53.088;8.850;2023-02-04T05:44:07;6.10;;;2.03;;
67162;SDS011;54092;53.088;8.850;2023-02-04T05:46:33;6.90;;;1.90;;
67162;SDS011;54092;53.088;8.850;2023-02-04T05:48:58;3.30;;;1.75;;
67162;SDS011;54092;53.088;8.850;2023-02-04T05:51:24;6.65;;;2.13;;
67162;SDS011;54092;53.088;8.850;2023-02-04T05:53:49;7.03;;;1.95;;
67162;SDS011;54092;53.088;8.850;2023-02-04T05:56:15;4.80;;;1.80;;
67162;SDS011;54092;53.088;8.850;2023-02-04T05:58:40;4.55;;;2.13;;
67162;SDS011;54092;53.088;8.850;2023-02-04T06:01:06;4.25;;;1.92;;
67162;SDS011;54092;53.088;8.850;2023-02-04T06:03:31;2.63;;;1.58;;
67162;SDS011;54092;53.088;8.850;2023-02-04T06:05:57;7.03;;;2.13;;
67162;SDS011;54092;53.088;8.850;2023-02-04T06:08:23;4.90;;;1.83;;
67162;SDS011;54092;53.088;8.850;2023-02-04T06:10:48;4.68;;;1.90;;
67162;SDS011;54092;53.088;8.850;2023-02-04T06:13:14;5.75;;;1.85;;
67162;SDS011;54092;53.088;8.850;2023-02-04T06:15:40;10.40;;;2.30;;
67162;SDS011;54092;53.088;8.850;2023-02-04T06:18:05;3.90;;;1.80;;
67162;SDS011;54092;53.088;8.850;2023-02-04T06:20:31;4.05;;;1.77;;
67162;SDS011;54092;53.088;8.850;2023-02-04T06:22:56;4.00;;;2.05;;
67162;SDS011;54092;53.088;8.850;2023-02-04T06:25:22;11.15;;;3.10;;
67162;SDS011;54092;53.088;8.850;2023-02-04T06:27:48;7.75;;;2.42;;
67162;SDS011;54092;53.088;8.850;2023-02-04T06:30:14;8.27;;;2.55;;
67162;SDS011;54092;53.088;8.850;2023-02-04T06:32:39;5.93;;;2.58;;
67162;SDS011;54092;53.088;8.850;2023-02-04T06:35:05;10.27;;;2.97;;
67162;SDS011;54092;53.088;8.850;2023-02-04T06:37:31;6.18;;;2.42;;
67162;SDS011;54092;53.088;8.850;2023-02-04T06:39:56;5.75;;;2.50;;
67162;SDS011;54092;53.088;8.850;2023-02-04T06:42:22;6.18;;;2.47;;
67162;SDS011;54092;53.088;8.850;2023-02-04T06:44:49;3.70;;;1.85;;
67162;SDS011;54092;53.088;8.850;2023-02-04T06:47:15;5.10;;;2.15;;
67162;SDS011;54092;53.088;8.850;2023-02-04T06:49:40;7.38;;;2.20;;
67162;SDS011;54092;53.088;8.850;2023-02-04T06:52:06;5.55;;;2.22;;
67162;SDS011;54092;53.088;8.850;2023-02-04T06:54:31;6.20;;;2.53;;
67162;SDS011;54092;53.088;8.850;2023-02-04T06:56:57;6.90;;;2.90;;
67162;SDS011;54092;53.088;8.850;2023-02-04T06:59:35;5.97;;;2.47;;
67162;SDS011;54092;53.088;8.850;2023-02-04T07:02:02;5.80;;;2.75;;
67162;SDS011;54092;53.088;8.850;2023-02-04T07:04:28;5.80;;;2.60;;
67162;SDS011;54092;53.088;8.850;2023-02-04T07:06:53;4.70;;;2.70;;
67162;SDS011;54092;53.088;8.850;2023-02-04T07:09:19;8.50;;;2.90;;
67162;SDS011;54092;53.088;8.850;2023-02-04T07:11:44;7.00;;;3.50;;
67162;SDS011;54092;53.088;8.850;2023-02-04T07:14:10;8.10;;;3.03;;
67162;SDS011;54092;53.088;8.850;2023-02-04T07:16:36;8.00;;;3.10;;
67162;SDS011;54092;53.088;8.850;2023-02-04T07:19:01;5.47;;;2.72;;
67162;SDS011;54092;53.088;8.850;2023-02-04T07:21:27;7.88;;;3.47;;
67162;SDS011;54092;53.088;8.850;2023-02-04T07:23:53;7.65;;;3.08;;
67162;SDS011;54092;53.088;8.850;2023-02-04T07:26:19;8.40;;;3.30;;
67162;SDS011;54092;53.088;8.850;2023-02-04T07:28:44;12.00;;;3.33;;
67162;SDS011;54092;53.088;8.850;2023-02-04T07:31:10;7.05;;;3.28;;
67162;SDS011;54092;53.088;8.850;2023-02-04T07:33:35;8.85;;;3.47;;
67162;SDS011;54092;53.088;8.850;2023-02-04T07:36:01;6.22;;;3.20;;
67162;SDS011;54092;53.088;8.850;2023-02-04T07:38:26;8.70;;;3.75;;
67162;SDS011;54092;53.088;8.850;2023-02-04T07:40:52;10.18;;;3.40;;
67162;SDS011;54092;53.088;8.850;2023-02-04T07:43:17;8.73;;;4.18;;
67162;SDS011;54092;53.088;8.850;2023-02-04T07:45:43;8.60;;;3.95;;
67162;SDS011;54092;53.088;8.850;2023-02-04T07:48:09;8.15;;;4.00;;
67162;SDS011;54092;53.088;8.850;2023-02-04T07:50:35;9.77;;;4.18;;
67162;SDS011;54092;53.088;8.850;2023-02-04T07:53:00;8.18;;;3.88;;
67162;SDS011;54092;53.088;8.850;2023-02-04T07:55:26;12.18;;;4.25;;
67162;SDS011;54092;53.088;8.850;2023-02-04T07:57:52;9.63;;;3.95;;
67162;SDS011;54092;53.088;8.850;2023-02-04T08:00:18;9.90;;;4.40;;
67162;SDS011;54092;53.088;8.850;2023-02-04T08:02:44;10.45;;;4.15;;
67162;SDS011;54092;53.088;8.850;2023-02-04T08:05:09;7.78;;;3.80;;
67162;SDS011;54092;53.088;8.850;2023-02-04T08:07:35;8.02;;;3.70;;
67162;SDS011;54092;53.088;8.850;2023-02-04T08:10:01;9.90;;;4.13;;
67162;SDS011;54092;53.088;8.850;2023-02-04T08:12:28;10.60;;;4.10;;
67162;SDS011;54092;53.088;8.850;2023-02-04T08:14:54;9.95;;;4.97;;
67162;SDS011;54092;53.088;8.850;2023-02-04T08:17:19;13.15;;;4.85;;
67162;SDS011;54092;53.088;8.850;2023-02-04T08:19:45;7.78;;;4.30;;
67162;SDS011;54092;53.088;8.850;2023-02-04T08:22:11;10.80;;;4.45;;
67162;SDS011;54092;53.088;8.850;2023-02-04T08:24:37;9.50;;;4.45;;
67162;SDS011;54092;53.088;8.850;2023-02-04T08:27:02;9.18;;;4.18;;
67162;SDS011;54092;53.088;8.850;2023-02-04T08:29:28;9.73;;;4.95;;
67162;SDS011;54092;53.088;8.850;2023-02-04T08:31:53;10.98;;;4.78;;
67162;SDS011;54092;53.088;8.850;2023-02-04T08:34:19;10.82;;;4.88;;
67162;SDS011;54092;53.088;8.850;2023-02-04T08:36:44;9.18;;;4.28;;
67162;SDS011;54092;53.088;8.850;2023-02-04T08:39:10;8.63;;;4.10;;
67162;SDS011;54092;53.088;8.850;2023-02-04T08:41:36;8.48;;;4.10;;
67162;SDS011;54092;53.088;8.850;2023-02-04T08:44:02;8.90;;;4.32;;
67162;SDS011;54092;53.088;8.850;2023-02-04T08:46:27;9.88;;;4.55;;
67162;SDS011;54092;53.088;8.850;2023-02-04T08:48:53;8.70;;;4.20;;
67162;SDS011;54092;53.088;8.850;2023-02-04T08:51:18;7.13;;;3.90;;
67162;SDS011;54092;53.088;8.850;2023-02-04T08:53:44;9.00;;;4.55;;
67162;SDS011;54092;53.088;8.850;2023-02-04T08:56:10;9.65;;;4.28;;
67162;SDS011;54092;53.088;8.850;2023-02-04T08:58:40;7.63;;;4.10;;
67162;SDS011;54092;53.088;8.850;2023-02-04T09:01:06;7.90;;;4.55;;
67162;SDS011;54092;53.088;8.850;2023-02-04T09:03:31;7.45;;;4.35;;
67162;SDS011;54092;53.088;8.850;2023-02-04T09:05:57;7.43;;;4.50;;
67162;SDS011;54092;53.088;8.850;2023-02-04T09:08:23;10.57;;;4.30;;
67162;SDS011;54092;53.088;8.850;2023-02-04T09:10:48;9.15;;;4.10;;
67162;SDS011;54092;53.088;8.850;2023-02-04T09:13:14;8.13;;;3.97;;
67162;SDS011;54092;53.088;8.850;2023-02-04T09:15:39;7.45;;;3.72;;
67162;SDS011;54092;53.088;8.850;2023-02-04T09:18:05;6.22;;;3.47;;
67162;SDS011;54092;53.088;8.850;2023-02-04T09:20:38;9.52;;;4.20;;
67162;SDS011;54092;53.088;8.850;2023-02-04T09:23:04;6.68;;;3.85;;
67162;SDS011;54092;53.088;8.850;2023-02-04T09:25:34;10.35;;;4.05;;
67162;SDS011;54092;53.088;8.850;2023-02-04T09:28:00;9.23;;;4.25;;
67162;SDS011;54092;53.088;8.850;2023-02-04T09:30:25;9.10;;;4.28;;
67162;SDS011;54092;53.088;8.850;2023-02-04T09:32:51;9.45;;;4.13;;
67162;SDS011;54092;53.088;8.850;2023-02-04T09:35:16;9.32;;;4.10;;
67162;SDS011;54092;53.088;8.850;2023-02-04T09:37:42;10.07;;;4.15;;
67162;SDS011;54092;53.088;8.850;2023-02-04T09:40:08;11.32;;;3.67;;
67162;SDS011;54092;53.088;8.850;2023-02-04T09:42:39;7.00;;;4.13;;
67162;SDS011;54092;53.088;8.850;2023-02-04T09:45:04;7.55;;;3.60;;
67162;SDS011;54092;53.088;8.850;2023-02-04T09:47:31;6.80;;;3.10;;
67162;SDS011;54092;53.088;8.850;2023-02-04T09:49:56;7.40;;;3.90;;
67162;SDS011;54092;53.088;8.850;2023-02-04T09:52:22;6.35;;;3.20;;
67162;SDS011;54092;53.088;8.850;2023-02-04T09:54:48;6.53;;;3.47;;
67162;SDS011;54092;53.088;8.850;2023-02-04T09:57:16;7.43;;;4.10;;
67162;SDS011;54092;53.088;8.850;2023-02-04T09:59:43;7.03;;;3.53;;
67162;SDS011;54092;53.088;8.850;2023-02-04T10:02:13;5.63;;;3.05;;
67162;SDS011;54092;53.088;8.850;2023-02-04T10:04:42;6.30;;;3.13;;
67162;SDS011;54092;53.088;8.850;2023-02-04T10:07:09;8.20;;;3.90;;
67162;SDS011;54092;53.088;8.850;2023-02-04T10:09:37;7.20;;;3.65;;
67162;SDS011;54092;53.088;8.850;2023-02-04T10:12:03;5.93;;;3.50;;
67162;SDS011;54092;53.088;8.850;2023-02-04T10:14:30;7.60;;;3.33;;
67162;SDS011;54092;53.088;8.850;2023-02-04T10:16:56;7.45;;;3.85;;
67162;SDS011;54092;53.088;8.850;2023-02-04T10:19:23;10.65;;;4.15;;
67162;SDS011;54092;53.088;8.850;2023-02-04T10:21:50;6.25;;;3.55;;
67162;SDS011;54092;53.088;8.850;2023-02-04T10:24:16;8.50;;;3.80;;
67162;SDS011;54092;53.088;8.850;2023-02-04T10:26:44;6.40;;;3.38;;
67162;SDS011;54092;53.088;8.850;2023-02-04T10:29:14;8.27;;;3.35;;
67162;SDS011;54092;53.088;8.850;2023-02-04T10:31:48;5.38;;;3.17;;
67162;SDS011;54092;53.088;8.850;2023-02-04T10:34:18;6.38;;;3.30;;
67162;SDS011;54092;53.088;8.850;2023-02-04T10:36:46;6.85;;;3.30;;
67162;SDS011;54092;53.088;8.850;2023-02-04T10:39:23;5.47;;;3.17;;
67162;SDS011;54092;53.088;8.850;2023-02-04T10:41:51;6.00;;;3.22;;
67162;SDS011;54092;53.088;8.850;2023-02-04T10:44:24;8.13;;;3.20;;
67162;SDS011;54092;53.088;8.850;2023-02-04T10:47:03;5.72;;;3.15;;
67162;SDS011;54092;53.088;8.850;2023-02-04T10:49:32;5.70;;;3.10;;
67162;SDS011;54092;53.088;8.850;2023-02-04T10:51:58;5.20;;;3.03;;
67162;SDS011;54092;53.088;8.850;2023-02-04T10:54:27;4.38;;;2.33;;
67162;SDS011;54092;53.088;8.850;2023-02-04T10:56:59;5.40;;;2.50;;
67162;SDS011;54092;53.088;8.850;2023-02-04T10:59:41;4.80;;;2.60;;
67162;SDS011;54092;53.088;8.850;2023-02-04T11:02:42;5.70;;;2.70;;
67162;SDS011;54092;53.088;8.850;2023-02-04T11:05:16;4.65;;;2.33;;
67162;SDS011;54092;53.088;8.850;2023-02-04T11:07:47;5.45;;;2.50;;
67162;SDS011;54092;53.088;8.850;2023-02-04T11:10:15;5.35;;;2.58;;
67162;SDS011;54092;53.088;8.850;2023-02-04T11:20:55;4.22;;;2.20;;
67162;SDS011;54092;53.088;8.850;2023-02-04T11:26:07;6.10;;;2.65;;
67162;SDS011;54092;53.088;8.850;2023-02-04T11:33:46;5.05;;;2.20;;
67162;SDS011;54092;53.088;8.850;2023-02-04T11:36:13;4.95;;;2.22;;
67162;SDS011;54092;53.088;8.850;2023-02-04T11:38:47;5.85;;;2.10;;
67162;SDS011;54092;53.088;8.850;2023-02-04T11:41:14;3.33;;;1.98;;
67162;SDS011;54092;53.088;8.850;2023-02-04T11:43:44;3.38;;;1.95;;
67162;SDS011;54092;53.088;8.850;2023-02-04T11:46:12;4.97;;;1.90;;
67162;SDS011;54092;53.088;8.850;2023-02-04T11:48:41;3.63;;;1.90;;
67162;SDS011;54092;53.088;8.850;2023-02-04T11:51:14;3.08;;;1.77;;
67162;SDS011;54092;53.088;8.850;2023-02-04T11:53:41;2.92;;;1.92;;
67162;SDS011;54092;53.088;8.850;2023-02-04T11:56:15;4.07;;;2.30;;
67162;SDS011;54092;53.088;8.850;2023-02-04T11:58:42;4.95;;;2.33;;
67162;SDS011;54092;53.088;8.850;2023-02-04T12:03:45;4.50;;;2.10;;
67162;SDS011;54092;53.088;8.850;2023-02-04T12:06:22;5.38;;;2.03;;
67162;SDS011;54092;53.088;8.850;2023-02-04T12:08:49;5.43;;;2.00;;
67162;SDS011;54092;53.088;8.850;2023-02-04T12:11:25;4.20;;;2.00;;
67162;SDS011;54092;53.088;8.850;2023-02-04T12:13:54;3.95;;;2.17;;
67162;SDS011;54092;53.088;8.850;2023-02-04T12:16:22;4.60;;;2.30;;
67162;SDS011;54092;53.088;8.850;2023-02-04T12:18:49;4.20;;;2.38;;
67162;SDS011;54092;53.088;8.850;2023-02-04T12:21:15;4.20;;;2.40;;
67162;SDS011;54092;53.088;8.850;2023-02-04T12:23:42;7.32;;;2.85;;
67162;SDS011;54092;53.088;8.850;2023-02-04T12:26:08;6.80;;;3.17;;
67162;SDS011;54092;53.088;8.850;2023-02-04T12:28:35;5.25;;;2.35;;
67162;SDS011;54092;53.088;8.850;2023-02-04T12:31:00;5.65;;;2.30;;
67162;SDS011;54092;53.088;8.850;2023-02-04T12:33:26;4.80;;;2.20;;
67162;SDS011;54092;53.088;8.850;2023-02-04T12:35:52;6.18;;;2.50;;
67162;SDS011;54092;53.088;8.850;2023-02-04T12:38:18;4.22;;;2.30;;
67162;SDS011;54092;53.088;8.850;2023-02-04T12:40:43;4.97;;;2.53;;
67162;SDS011;54092;53.088;8.850;2023-02-04T12:43:09;5.57;;;2.50;;
67162;SDS011;54092;53.088;8.850;2023-02-04T12:45:34;3.15;;;2.03;;
67162;SDS011;54092;53.088;8.850;2023-02-04T12:48:01;3.75;;;2.10;;
67162;SDS011;54092;53.088;8.850;2023-02-04T12:50:27;6.40;;;2.33;;
67162;SDS011;54092;53.088;8.850;2023-02-04T12:52:53;4.10;;;2.10;;
67162;SDS011;54092;53.088;8.850;2023-02-04T12:55:20;3.13;;;2.00;;
67162;SDS011;54092;53.088;8.850;2023-02-04T12:57:47;4.45;;;2.03;;
67162;SDS011;54092;53.088;8.850;2023-02-04T13:00:13;4.07;;;2.10;;
67162;SDS011;54092;53.088;8.850;2023-02-04T13:02:40;4.15;;;2.20;;
67162;SDS011;54092;53.088;8.850;2023-02-04T13:05:06;4.85;;;2.20;;
67162;SDS011;54092;53.088;8.850;2023-02-04T13:07:32;5.68;;;2.60;;
67162;SDS011;54092;53.088;8.850;2023-02-04T13:09:58;4.90;;;2.65;;
67162;SDS011;54092;53.088;8.850;2023-02-04T13:12:23;4.00;;;2.10;;
67162;SDS011;54092;53.088;8.850;2023-02-04T13:14:49;4.05;;;2.25;;
67162;SDS011;54092;53.088;8.850;2023-02-04T13:17:15;5.32;;;2.60;;
67162;SDS011;54092;53.088;8.850;2023-02-04T13:19:40;6.22;;;2.30;;
67162;SDS011;54092;53.088;8.850;2023-02-04T13:22:06;4.68;;;2.40;;
67162;SDS011;54092;53.088;8.850;2023-02-04T13:24:32;4.35;;;2.50;;
67162;SDS011;54092;53.088;8.850;2023-02-04T13:26:58;4.85;;;2.40;;
67162;SDS011;54092;53.088;8.850;2023-02-04T13:29:23;5.35;;;2.35;;
67162;SDS011;54092;53.088;8.850;2023-02-04T13:31:49;4.78;;;2.70;;
67162;SDS011;54092;53.088;8.850;2023-02-04T13:34:14;5.57;;;2.70;;
67162;SDS011;54092;53.088;8.850;2023-02-04T13:36:40;4.55;;;2.10;;
67162;SDS011;54092;53.088;8.850;2023-02-04T13:39:07;3.70;;;2.00;;
67162;SDS011;54092;53.088;8.850;2023-02-04T13:41:33;4.55;;;2.10;;
67162;SDS011;54092;53.088;8.850;2023-02-04T13:44:00;5.35;;;2.60;;
67162;SDS011;54092;53.088;8.850;2023-02-04T13:46:26;3.80;;;2.13;;
67162;SDS011;54092;53.088;8.850;2023-02-04T13:48:51;5.07;;;2.30;;
67162;SDS011;54092;53.088;8.850;2023-02-04T13:51:17;3.55;;;1.95;;
67162;SDS011;54092;53.088;8.850;2023-02-04T13:53:42;3.72;;;2.10;;
67162;SDS011;54092;53.088;8.850;2023-02-04T13:56:08;4.43;;;2.20;;
67162;SDS011;54092;53.088;8.850;2023-02-04T13:58:33;3.28;;;1.90;;
67162;SDS011;54092;53.088;8.850;2023-02-04T14:00:59;4.68;;;2.20;;
67162;SDS011;54092;53.088;8.850;2023-02-04T14:03:25;5.45;;;2.40;;
67162;SDS011;54092;53.088;8.850;2023-02-04T14:05:52;4.57;;;2.30;;
67162;SDS011;54092;53.088;8.850;2023-02-04T14:08:18;3.50;;;2.13;;
67162;SDS011;54092;53.088;8.850;2023-02-04T14:10:45;4.13;;;2.20;;
67162;SDS011;54092;53.088;8.850;2023-02-04T14:13:10;4.32;;;2.28;;
67162;SDS011;54092;53.088;8.850;2023-02-04T14:15:36;4.18;;;2.40;;
67162;SDS011;54092;53.088;8.850;2023-02-04T14:18:02;4.68;;;2.00;;
67162;SDS011;54092;53.088;8.850;2023-02-04T14:20:28;5.50;;;2.50;;
67162;SDS011;54092;53.088;8.850;2023-02-04T14:22:54;5.68;;;2.58;;
67162;SDS011;54092;53.088;8.850;2023-02-04T14:25:20;5.10;;;2.15;;
67162;SDS011;54092;53.088;8.850;2023-02-04T14:27:45;3.92;;;2.50;;
67162;SDS011;54092;53.088;8.850;2023-02-04T14:30:15;4.90;;;2.22;;
67162;SDS011;54092;53.088;8.850;2023-02-04T14:32:41;3.53;;;2.03;;
67162;SDS011;54092;53.088;8.850;2023-02-04T14:35:06;5.03;;;2.28;;
67162;SDS011;54092;53.088;8.850;2023-02-04T14:37:32;4.47;;;2.20;;
67162;SDS011;54092;53.088;8.850;2023-02-04T14:39:58;4.45;;;2.38;;
67162;SDS011;54092;53.088;8.850;2023-02-04T14:42:23;8.85;;;2.50;;
67162;SDS011;54092;53.088;8.850;2023-02-04T14:44:49;4.20;;;2.30;;
67162;SDS011;54092;53.088;8.850;2023-02-04T14:47:14;7.13;;;2.55;;
67162;SDS011;54092;53.088;8.850;2023-02-04T14:49:39;4.43;;;1.98;;
67162;SDS011;54092;53.088;8.850;2023-02-04T14:52:05;5.40;;;2.67;;
67162;SDS011;54092;53.088;8.850;2023-02-04T14:54:30;5.50;;;2.05;;
67162;SDS011;54092;53.088;8.850;2023-02-04T14:56:56;3.85;;;2.30;;
67162;SDS011;54092;53.088;8.850;2023-02-04T14:59:22;4.75;;;2.28;;
67162;SDS011;54092;53.088;8.850;2023-02-04T15:01:47;4.90;;;2.08;;
67162;SDS011;54092;53.088;8.850;2023-02-04T15:04:13;6.25;;;2.20;;
67162;SDS011;54092;53.088;8.850;2023-02-04T15:06:38;6.05;;;2.35;;
67162;SDS011;54092;53.088;8.850;2023-02-04T15:09:04;5.43;;;2.35;;